Time;durP1;ratioP1;P1;durP2;ratioP2;P2;SDS_P1;SDS_P2;PMS_P1;PMS_P2;Temp;Humidity;BMP_temperature;BMP_pressure;BME280_temperature;BME280_humidity;BME280_pressure;Samples;Min_cycle;Max_cycle;Signal;HPM_P1;HPM_P2
2022/03/28 00:00:41;;;;;;;28.30;19.83;;;7.70;99.90;;;;;;5032402;28;20164;-77
2022/03/28 00:03:14;;;;;;;25.30;18.08;;;7.80;99.90;;;;;;5029380;28;20030;-77
2022/03/28 00:06:09;;;;;;;30.33;19.48;;;7.70;99.90;;;;;;5033224;28;20044;-77
2022/03/28 00:12:01;;;;;;;29.52;18.63;;;7.70;99.90;;;;;;5033073;28;20440;-77
2022/03/28 00:14:35;;;;;;;26.63;18.25;;;7.70;99.90;;;;;;5022611;28;20045;-77
2022/03/28 00:20:27;;;;;;;25.65;18.02;;;7.60;99.90;;;;;;5033287;28;20028;-78
2022/03/28 00:22:55;;;;;;;27.90;18.70;;;7.60;99.90;;;;;;5032972;28;20602;-77
2022/03/28 00:25:48;;;;;;;30.60;18.83;;;7.60;99.90;;;;;;5033098;28;20476;-77
2022/03/28 00:31:47;;;;;;;29.33;17.08;;;7.60;99.90;;;;;;5025688;28;20094;-77
2022/03/28 00:34:21;;;;;;;26.00;17.60;;;7.60;99.90;;;;;;5032683;28;20049;-77
2022/03/28 00:37:05;;;;;;;27.42;19.13;;;7.60;99.90;;;;;;5031775;28;20557;-77
2022/03/28 00:39:48;;;;;;;26.38;16.83;;;7.60;99.90;;;;;;5032293;28;20036;-77
2022/03/28 00:42:17;;;;;;;25.27;17.40;;;7.70;99.90;;;;;;5033350;28;20029;-77
2022/03/28 00:48:42;;;;;;;;;;;;;;;;;;;;;
2022/03/28 00:58:00;;;;;;;22.88;16.08;;;7.90;99.90;;;;;;4939237;28;20062;-77
2022/03/28 01:00:38;;;;;;;24.42;16.45;;;7.90;99.90;;;;;;5027549;28;20539;-78
2022/03/28 01:03:25;;;;;;;28.80;17.25;;;7.90;99.90;;;;;;5031041;28;20653;-77
2022/03/28 01:06:24;;;;;;;28.35;18.85;;;7.90;99.90;;;;;;5032265;28;20039;-77
2022/03/28 01:08:51;;;;;;;33.13;20.47;;;7.90;99.90;;;;;;5022497;28;20038;-77
2022/03/28 01:11:48;;;;;;;23.95;18.58;;;8.10;99.90;;;;;;5028005;28;20315;-78
2022/03/28 01:14:45;;;;;;;;;;;;;;;;;;;;;
2022/03/28 01:20:41;;;;;;;;;;;;;;;;;;;;;
2022/03/28 01:26:51;;;;;;;48.20;31.70;;;8.70;99.90;;;;;;5031740;28;20036;-77
2022/03/28 01:47:03;;;;;;;54.28;40.67;;;8.50;99.90;;;;;;5028971;28;20120;-77
2022/03/28 01:49:33;;;;;;;53.90;38.75;;;8.50;99.90;;;;;;5028428;28;20048;-77
2022/03/28 01:52:32;;;;;;;46.63;31.08;;;8.50;99.90;;;;;;5029652;28;20544;-77
2022/03/28 01:55:29;;;;;;;52.50;28.73;;;8.40;99.90;;;;;;5028468;28;20781;-79
2022/03/28 01:58:06;;;;;;;41.15;28.42;;;8.50;99.90;;;;;;5025269;28;20045;-78
2022/03/28 02:00:59;;;;;;;50.38;29.48;;;8.50;99.90;;;;;;5026426;28;20041;-78
2022/03/28 02:20:14;;;;;;;51.30;34.97;;;8.10;99.90;;;;;;5029336;28;20027;-78
2022/03/28 02:22:50;;;;;;;57.10;37.10;;;8.10;99.90;;;;;;5022881;28;20025;-78
2022/03/28 02:25:24;;;;;;;53.55;36.75;;;8.00;99.90;;;;;;5030061;28;20399;-78
2022/03/28 02:28:01;;;;;;;53.88;35.50;;;8.00;99.90;;;;;;5030692;28;20114;-78
2022/03/28 02:30:40;;;;;;;50.45;35.40;;;7.90;99.90;;;;;;5027012;28;20249;-79
2022/03/28 02:36:45;;;;;;;46.97;34.85;;;7.90;99.90;;;;;;5030060;28;20083;-79
2022/03/28 02:39:46;;;;;;;47.50;35.72;;;7.90;99.90;;;;;;5029923;28;20622;-79
2022/03/28 02:42:15;;;;;;;58.20;37.00;;;7.90;99.90;;;;;;5026691;28;20021;-78
2022/03/28 02:44:44;;;;;;;53.72;40.10;;;7.80;99.90;;;;;;5027436;28;20029;-78
2022/03/28 03:01:08;;;;;;;65.38;54.90;;;7.50;99.90;;;;;;5027644;28;20383;-79
2022/03/28 03:03:37;;;;;;;76.15;61.65;;;7.40;99.90;;;;;;4959111;28;20043;-79
2022/03/28 03:12:58;;;;;;;85.63;76.18;;;7.50;99.90;;;;;;4988982;28;20121;-80
2022/03/28 03:15:56;;;;;;;90.15;72.40;;;7.60;99.90;;;;;;4984886;28;20037;-79
2022/03/28 03:18:21;;;;;;;85.03;75.55;;;7.60;99.90;;;;;;4987348;28;20058;-79
2022/03/28 03:21:38;;;;;;;88.75;79.13;;;7.60;99.90;;;;;;5071019;28;20079;-79
2022/03/28 03:24:07;;;;;;;85.97;68.43;;;7.70;99.90;;;;;;5073971;28;20530;-79
2022/03/28 03:30:01;;;;;;;88.95;71.32;;;7.90;99.90;;;;;;5017739;28;20133;-79
2022/03/28 03:35:50;;;;;;;64.35;54.88;;;7.90;99.90;;;;;;4987050;28;20038;-79
2022/03/28 03:42:13;;;;;;;55.35;47.63;;;8.10;99.90;;;;;;4991287;28;20571;-79
2022/03/28 03:45:39;;;;;;;38.10;28.25;;;8.10;99.90;;;;;;4989358;28;20031;-79
2022/03/28 03:49:00;;;;;;;34.78;27.45;;;8.10;99.90;;;;;;4959845;28;20027;-79
2022/03/28 03:51:49;;;;;;;37.08;30.65;;;8.10;99.90;;;;;;4947006;28;20078;-79
2022/03/28 03:54:46;;;;;;;42.08;33.63;;;8.10;99.90;;;;;;5068382;28;20059;-79
2022/03/28 03:57:41;;;;;;;52.80;37.28;;;7.90;99.90;;;;;;4962116;28;20031;-78
2022/03/28 04:00:15;;;;;;;51.63;39.25;;;7.70;99.90;;;;;;5031420;28;20035;-79
2022/03/28 04:03:12;;;;;;;50.30;41.33;;;7.50;99.90;;;;;;5047184;28;20021;-79
2022/03/28 04:05:47;;;;;;;55.78;43.17;;;7.40;99.90;;;;;;5071193;28;20115;-79
2022/03/28 04:08:28;;;;;;;63.13;45.63;;;7.20;99.90;;;;;;5073312;28;20036;-79
2022/03/28 04:11:30;;;;;;;54.72;39.22;;;7.10;99.90;;;;;;5067961;28;20051;-79
2022/03/28 04:14:02;;;;;;;45.15;35.88;;;6.90;99.90;;;;;;4961360;28;20094;-79
2022/03/28 04:23:00;;;;;;;42.53;32.33;;;6.50;99.90;;;;;;5073024;28;20032;-79
2022/03/28 04:25:49;;;;;;;47.92;32.85;;;6.40;99.90;;;;;;5069435;28;20043;-79
2022/03/28 04:28:15;;;;;;;50.30;31.70;;;6.30;99.90;;;;;;5072822;28;20048;-79
2022/03/28 04:30:49;;;;;;;43.50;33.88;;;6.20;99.90;;;;;;5072594;28;20036;-79
2022/03/28 04:33:32;;;;;;;43.97;35.10;;;6.10;99.90;;;;;;5072972;28;20017;-79
2022/03/28 04:36:00;;;;;;;52.20;35.22;;;6.00;99.90;;;;;;5060535;28;20123;-78
2022/03/28 04:38:30;;;;;;;62.40;37.33;;;5.90;99.90;;;;;;5072596;28;20033;-78
2022/03/28 04:40:56;;;;;;;48.28;37.35;;;5.90;99.90;;;;;;5067741;28;20090;-78
2022/03/28 04:43:40;;;;;;;59.40;41.67;;;5.80;99.90;;;;;;5054620;28;20031;-78
2022/03/28 04:46:12;;;;;;;67.32;49.42;;;5.70;99.90;;;;;;5068800;28;20107;-78
2022/03/28 04:48:40;;;;;;;80.28;49.92;;;5.70;99.90;;;;;;5072558;28;20103;-78
2022/03/28 04:51:08;;;;;;;68.78;50.13;;;5.60;99.90;;;;;;5054641;28;20076;-78
2022/03/28 04:53:37;;;;;;;70.72;51.80;;;5.60;99.90;;;;;;5072639;28;20021;-78
2022/03/28 04:56:06;;;;;;;70.78;51.78;;;5.60;99.90;;;;;;5072477;28;20063;-78
2022/03/28 04:58:48;;;;;;;70.93;52.83;;;5.50;99.90;;;;;;5072192;28;20040;-78
2022/03/28 05:01:17;;;;;;;81.32;56.05;;;5.50;99.90;;;;;;5072177;28;20025;-78
2022/03/28 05:04:02;;;;;;;80.18;56.70;;;5.50;99.90;;;;;;5045342;28;20094;-78
2022/03/28 05:06:31;;;;;;;73.20;54.40;;;5.50;99.90;;;;;;5054224;28;20450;-78
2022/03/28 05:08:59;;;;;;;65.30;50.28;;;5.40;99.90;;;;;;5072228;28;20074;-78
2022/03/28 05:11:28;;;;;;;62.65;50.40;;;5.50;99.90;;;;;;5072339;28;20032;-79
2022/03/28 05:14:14;;;;;;;65.55;49.58;;;5.50;99.90;;;;;;5044884;28;20028;-78
2022/03/28 05:16:46;;;;;;;70.07;53.92;;;5.60;99.90;;;;;;5071013;28;20032;-79
2022/03/28 05:19:17;;;;;;;69.07;55.50;;;5.60;99.90;;;;;;5053569;28;20499;-78
2022/03/28 05:21:43;;;;;;;68.45;53.00;;;5.70;99.90;;;;;;5071744;28;20032;-78
2022/03/28 05:24:21;;;;;;;74.00;55.42;;;5.70;99.90;;;;;;5071519;28;20029;-79
2022/03/28 05:26:50;;;;;;;71.13;54.28;;;5.80;99.90;;;;;;5072106;28;20479;-79
2022/03/28 05:29:23;;;;;;;70.13;53.92;;;5.90;99.90;;;;;;5053663;28;20024;-79
2022/03/28 05:31:58;;;;;;;69.70;52.38;;;6.00;99.90;;;;;;5070930;28;20036;-79
2022/03/28 05:34:24;;;;;;;73.47;52.60;;;6.10;99.90;;;;;;5053066;28;20039;-79
2022/03/28 05:37:10;;;;;;;75.18;53.63;;;6.10;99.90;;;;;;5072036;28;20016;-79
2022/03/28 05:39:40;;;;;;;70.38;52.58;;;6.20;99.90;;;;;;5071053;28;20545;-79
2022/03/28 05:42:17;;;;;;;70.72;52.28;;;6.20;99.90;;;;;;5067694;28;20101;-78
2022/03/28 05:44:43;;;;;;;71.90;50.17;;;6.30;99.90;;;;;;5071371;28;20033;-78
2022/03/28 05:47:15;;;;;;;70.90;47.63;;;6.40;99.90;;;;;;5071778;28;20020;-78
2022/03/28 05:50:00;;;;;;;75.32;48.88;;;6.40;99.90;;;;;;5047002;28;20031;-78
2022/03/28 05:52:38;;;;;;;72.50;49.03;;;6.50;99.90;;;;;;5071373;28;20090;-78
2022/03/28 05:55:05;;;;;;;69.95;48.08;;;6.60;99.90;;;;;;5053155;28;20035;-77
2022/03/28 05:57:58;;;;;;;65.97;45.33;;;6.60;99.90;;;;;;5070908;28;20052;-77
2022/03/28 06:00:35;;;;;;;69.03;43.72;;;6.70;99.90;;;;;;5048759;28;20040;-76
2022/03/28 06:03:12;;;;;;;64.82;43.97;;;6.80;99.90;;;;;;5071000;28;20038;-77
2022/03/28 06:05:53;;;;;;;66.20;41.42;;;6.90;99.90;;;;;;5053114;28;20032;-77
2022/03/28 06:08:31;;;;;;;52.38;38.05;;;7.00;99.90;;;;;;5052349;28;20016;-77
2022/03/28 06:11:06;;;;;;;44.72;30.02;;;7.10;99.90;;;;;;5066090;28;20033;-78
2022/03/28 06:13:33;;;;;;;39.35;28.85;;;7.20;99.90;;;;;;5049196;28;20024;-77
2022/03/28 06:16:02;;;;;;;46.33;32.47;;;7.20;99.90;;;;;;5071107;28;20105;-77
2022/03/28 06:18:31;;;;;;;47.13;33.33;;;7.40;99.90;;;;;;5071117;28;20387;-77
2022/03/28 06:21:07;;;;;;;50.05;33.65;;;7.40;99.90;;;;;;5066276;28;20060;-77
2022/03/28 06:23:36;;;;;;;44.70;32.40;;;7.50;99.90;;;;;;5070567;28;20024;-77
2022/03/28 06:26:04;;;;;;;52.78;33.60;;;7.70;99.90;;;;;;5070881;28;20486;-78
2022/03/28 06:28:30;;;;;;;46.85;30.33;;;7.80;99.90;;;;;;5070922;28;20025;-77
2022/03/28 06:31:06;;;;;;;46.97;29.50;;;7.90;99.90;;;;;;5052280;28;20044;-78
2022/03/28 06:33:36;;;;;;;44.42;29.58;;;8.00;99.90;;;;;;5070541;28;20483;-78
2022/03/28 06:36:06;;;;;;;45.15;28.75;;;8.10;99.90;;;;;;5070859;28;20471;-77
2022/03/28 06:38:35;;;;;;;40.15;29.30;;;8.20;99.90;;;;;;5070696;28;20051;-78
2022/03/28 06:41:01;;;;;;;39.70;28.90;;;8.30;99.90;;;;;;5070917;28;20059;-78
2022/03/28 06:43:27;;;;;;;43.22;28.23;;;8.40;99.90;;;;;;5052849;28;20226;-78
2022/03/28 06:45:59;;;;;;;47.85;27.58;;;8.60;99.90;;;;;;5070480;28;20108;-77
2022/03/28 06:48:37;;;;;;;38.70;27.10;;;8.70;99.90;;;;;;5070202;28;20111;-77
2022/03/28 06:51:06;;;;;;;58.40;31.48;;;8.80;99.90;;;;;;5065300;28;20036;-77
2022/03/28 06:53:32;;;;;;;48.25;31.45;;;9.00;99.90;;;;;;5069764;28;20035;-77
2022/03/28 06:56:16;;;;;;;50.60;30.10;;;9.10;99.90;;;;;;5070394;28;20430;-77
2022/03/28 06:58:43;;;;;;;47.85;29.95;;;9.20;99.90;;;;;;5060897;28;20037;-77
2022/03/28 07:01:11;;;;;;;37.05;29.77;;;9.30;99.90;;;;;;5070281;28;20081;-77
2022/03/28 07:03:37;;;;;;;56.58;29.65;;;9.40;99.90;;;;;;5051417;28;20064;-77
2022/03/28 07:06:03;;;;;;;50.78;29.10;;;9.60;99.90;;;;;;5068357;28;20017;-77
2022/03/28 07:08:29;;;;;;;51.22;31.80;;;9.70;99.90;;;;;;5068433;28;20024;-77
2022/03/28 07:10:58;;;;;;;44.13;28.48;;;9.70;99.90;;;;;;5068841;28;20499;-77
2022/03/28 07:13:24;;;;;;;52.90;28.67;;;9.80;99.90;;;;;;5068715;28;20074;-77
2022/03/28 07:15:52;;;;;;;54.35;30.58;;;9.90;99.90;;;;;;5068680;28;20033;-77
2022/03/28 07:18:22;;;;;;;47.53;30.05;;;10.00;99.90;;;;;;5068770;28;20017;-77
2022/03/28 07:20:50;;;;;;;62.08;40.90;;;10.10;99.90;;;;;;5070300;28;20387;-77
2022/03/28 07:23:18;;;;;;;69.22;44.47;;;10.10;99.90;;;;;;5069894;28;20056;-76
2022/03/28 07:25:44;;;;;;;103.03;64.57;;;10.00;99.90;;;;;;5069929;28;20016;-77
2022/03/28 07:28:17;;;;;;;86.07;49.28;;;10.00;99.90;;;;;;5070291;28;20056;-77
2022/03/28 07:30:43;;;;;;;102.82;56.40;;;10.00;99.90;;;;;;5069990;28;20041;-77
2022/03/28 07:33:12;;;;;;;90.20;60.45;;;9.90;99.90;;;;;;5051787;28;20024;-76
2022/03/28 07:35:39;;;;;;;81.72;56.65;;;9.90;99.90;;;;;;5052299;28;20445;-77
2022/03/28 07:38:11;;;;;;;91.00;57.70;;;9.80;99.90;;;;;;5052387;28;20031;-77
2022/03/28 07:40:40;;;;;;;81.40;56.53;;;9.80;99.90;;;;;;5070314;28;20044;-77
2022/03/28 07:43:14;;;;;;;78.95;56.92;;;9.80;99.90;;;;;;5069973;28;20029;-77
2022/03/28 07:45:41;;;;;;;75.60;56.90;;;9.80;99.90;;;;;;5069780;28;20115;-76
2022/03/28 07:48:07;;;;;;;79.00;56.47;;;9.80;99.90;;;;;;5070129;28;20024;-76
2022/03/28 07:50:39;;;;;;;85.25;59.65;;;9.80;99.90;;;;;;5069985;28;20420;-76
2022/03/28 07:53:14;;;;;;;77.20;56.58;;;9.80;99.90;;;;;;5069865;28;20074;-76
2022/03/28 07:55:45;;;;;;;83.93;58.35;;;9.70;99.90;;;;;;5069828;28;20028;-76
2022/03/28 07:58:12;;;;;;;78.35;58.30;;;9.70;99.90;;;;;;5072205;28;20041;-76
2022/03/28 08:00:40;;;;;;;71.07;57.03;;;9.60;99.90;;;;;;5055500;28;20036;-76
2022/03/28 08:03:12;;;;;;;76.72;58.35;;;9.60;99.90;;;;;;5055404;28;20025;-77
2022/03/28 08:05:38;;;;;;;;;;;9.60;99.90;;;;;;5055247;28;20043;-77
2022/03/28 08:08:07;;;;;;;78.90;59.42;;;9.60;99.90;;;;;;5055616;28;20392;-77
2022/03/28 08:11:22;;;;;;;73.80;57.85;;;9.50;99.90;;;;;;5072945;28;20040;-77
2022/03/28 08:13:55;;;;;;;81.45;60.25;;;9.60;99.90;;;;;;5063525;28;20036;-76
2022/03/28 08:16:21;;;;;;;79.93;60.53;;;9.40;99.90;;;;;;5073122;28;20376;-77
2022/03/28 08:18:57;;;;;;;;;;;;;;;;;;;;;
2022/03/28 08:21:23;;;;;;;82.80;60.13;;;9.40;99.90;;;;;;5073118;28;20032;-77
2022/03/28 08:23:52;;;;;;;78.90;59.05;;;9.40;99.90;;;;;;5072929;28;20054;-77
2022/03/28 08:26:18;;;;;;;73.40;54.67;;;9.40;99.90;;;;;;5061510;28;20048;-77
2022/03/28 08:28:47;;;;;;;74.50;57.55;;;9.50;99.90;;;;;;5068549;28;20126;-77
2022/03/28 08:31:32;;;;;;;71.22;55.92;;;9.40;99.90;;;;;;5070304;28;20056;-76
2022/03/28 08:33:58;;;;;;;71.15;53.17;;;9.50;99.90;;;;;;5047108;28;20116;-77
2022/03/28 08:36:33;;;;;;;59.88;51.28;;;9.50;99.90;;;;;;5052073;28;20028;-77
2022/03/28 08:39:01;;;;;;;65.60;52.03;;;9.50;99.90;;;;;;5051116;28;20044;-77
2022/03/28 08:41:34;;;;;;;71.35;54.95;;;9.30;99.90;;;;;;5068615;28;20116;-77
2022/03/28 08:44:04;;;;;;;66.72;52.13;;;9.30;99.90;;;;;;5059264;28;20033;-77
2022/03/28 08:46:31;;;;;;;58.80;50.10;;;9.30;99.90;;;;;;5068169;28;20494;-77
2022/03/28 08:49:01;;;;;;;58.42;48.85;;;9.40;99.90;;;;;;5069507;28;20028;-76
2022/03/28 08:51:27;;;;;;;58.25;50.17;;;9.50;99.90;;;;;;5067959;28;20039;-77
2022/03/28 08:53:55;;;;;;;54.35;47.30;;;9.50;99.90;;;;;;5049782;28;20464;-77
2022/03/28 08:56:21;;;;;;;61.40;46.90;;;9.70;99.90;;;;;;5063687;28;20468;-76
2022/03/28 08:58:48;;;;;;;57.35;48.08;;;9.90;99.90;;;;;;5046984;28;20037;-77
2022/03/28 09:01:36;;;;;;;60.05;48.40;;;9.90;99.90;;;;;;5070852;28;20444;-77
2022/03/28 09:04:32;;;;;;;49.30;43.22;;;10.00;99.90;;;;;;5051884;28;20066;-77
2022/03/28 09:07:10;;;;;;;51.47;44.40;;;10.30;99.90;;;;;;5066598;28;20399;-77
2022/03/28 09:09:39;;;;;;;55.58;43.85;;;10.30;99.90;;;;;;5065368;28;20079;-77
2022/03/28 09:12:13;;;;;;;52.20;44.40;;;10.30;99.90;;;;;;5052372;28;20391;-76
2022/03/28 09:14:49;;;;;;;53.20;43.25;;;10.20;99.90;;;;;;5067051;28;20103;-76
2022/03/28 09:17:18;;;;;;;52.03;42.65;;;10.20;99.90;;;;;;5069455;28;20028;-77
2022/03/28 09:20:02;;;;;;;55.67;46.35;;;10.20;99.90;;;;;;5067605;28;20096;-77
2022/03/28 09:22:32;;;;;;;52.35;46.40;;;10.10;99.90;;;;;;5069689;28;20073;-77
2022/03/28 09:25:09;;;;;;;57.10;47.83;;;10.00;99.90;;;;;;5049161;28;20039;-77
2022/03/28 09:27:37;;;;;;;57.63;45.92;;;9.80;99.90;;;;;;5049472;28;20021;-77
2022/03/28 09:30:10;;;;;;;66.40;44.83;;;10.00;99.90;;;;;;5068273;28;20044;-76
2022/03/28 09:32:44;;;;;;;53.95;43.75;;;10.10;99.90;;;;;;5046483;28;20430;-77
2022/03/28 09:35:41;;;;;;;53.30;42.28;;;10.00;99.90;;;;;;5068676;28;20055;-77
2022/03/28 09:38:08;;;;;;;49.33;42.90;;;10.10;99.90;;;;;;5068814;28;20463;-76
2022/03/28 09:40:57;;;;;;;57.33;42.63;;;10.40;99.90;;;;;;5066501;28;20017;-77
2022/03/28 09:43:37;;;;;;;50.95;42.15;;;10.50;99.90;;;;;;5051403;28;20021;-77
2022/03/28 09:46:03;;;;;;;54.55;45.45;;;10.60;99.90;;;;;;5067369;28;20024;-77
2022/03/28 09:48:29;;;;;;;55.95;45.42;;;10.60;99.90;;;;;;5050069;28;20128;-76
2022/03/28 09:51:24;;;;;;;55.85;45.33;;;10.60;99.90;;;;;;5048785;28;20483;-77
2022/03/28 09:53:57;;;;;;;57.70;46.70;;;10.60;99.90;;;;;;5066682;28;20029;-77
2022/03/28 09:56:30;;;;;;;58.78;48.35;;;10.40;99.90;;;;;;5049009;28;20033;-76
2022/03/28 09:59:00;;;;;;;56.90;45.45;;;10.40;99.90;;;;;;5065754;28;20048;-76
2022/03/28 10:01:31;;;;;;;61.50;48.00;;;10.30;99.90;;;;;;5067091;28;20031;-77
2022/03/28 10:04:31;;;;;;;64.07;47.70;;;10.40;99.90;;;;;;5069729;28;20059;-76
2022/03/28 10:06:57;;;;;;;69.45;50.88;;;10.30;99.90;;;;;;5061892;28;20068;-76
2022/03/28 10:09:39;;;;;;;59.83;47.55;;;10.20;99.90;;;;;;5045409;28;20029;-77
2022/03/28 10:12:07;;;;;;;61.33;46.72;;;10.40;99.90;;;;;;5067390;28;20027;-77
2022/03/28 10:14:42;;;;;;;55.03;44.13;;;10.70;99.90;;;;;;5041870;28;20023;-77
2022/03/28 10:17:08;;;;;;;51.85;45.80;;;10.80;99.90;;;;;;5066836;28;20033;-76
2022/03/28 10:19:39;;;;;;;57.38;45.08;;;10.80;99.90;;;;;;5070075;28;20036;-76
2022/03/28 10:22:36;;;;;;;56.50;44.53;;;11.00;99.90;;;;;;5067148;28;20098;-77
2022/03/28 10:25:25;;;;;;;53.55;42.47;;;11.00;99.90;;;;;;5052023;28;20029;-76
2022/03/28 10:28:25;;;;;;;53.97;44.33;;;11.20;99.90;;;;;;5063868;28;20028;-76
2022/03/28 10:31:15;;;;;;;57.05;43.92;;;11.20;99.90;;;;;;5069504;28;20403;-78
2022/03/28 10:33:52;;;;;;;54.50;43.58;;;10.80;99.90;;;;;;5043469;28;20020;-78
2022/03/28 10:36:32;;;;;;;58.63;43.42;;;10.90;99.90;;;;;;5052789;28;20651;-78
2022/03/28 10:39:46;;;;;;;60.08;44.22;;;11.00;99.90;;;;;;5053037;28;20154;-77
2022/03/28 10:42:28;;;;;;;51.42;41.38;;;11.20;99.90;;;;;;5064261;28;20067;-78
2022/03/28 10:45:08;;;;;;;50.08;39.20;;;11.50;99.90;;;;;;5069279;28;20191;-78
2022/03/28 10:48:04;;;;;;;49.35;39.17;;;11.70;99.90;;;;;;5070537;28;20032;-77
2022/03/28 10:50:50;;;;;;;47.00;39.55;;;11.90;99.90;;;;;;5025592;28;20636;-78
2022/03/28 10:53:33;;;;;;;53.53;38.45;;;11.90;99.90;;;;;;5068966;28;20399;-78
2022/03/28 10:56:11;;;;;;;41.63;34.22;;;11.80;99.90;;;;;;5064181;28;20089;-78
2022/03/28 10:58:57;;;;;;;36.42;32.17;;;12.00;99.90;;;;;;5068931;28;20135;-77
2022/03/28 11:02:08;;;;;;;40.67;32.33;;;11.80;99.90;;;;;;5068830;28;20028;-78
2022/03/28 11:04:49;;;;;;;42.95;34.58;;;11.30;99.90;;;;;;5062518;28;20029;-78
2022/03/28 11:07:21;;;;;;;42.40;35.25;;;11.20;99.90;;;;;;5067643;28;20025;-78
2022/03/28 11:10:08;;;;;;;46.55;35.00;;;11.30;99.90;;;;;;5069872;28;20028;-77
2022/03/28 11:12:37;;;;;;;52.65;43.50;;;11.50;99.90;;;;;;5052465;28;20127;-78
2022/03/28 11:15:19;;;;;;;44.38;33.85;;;11.50;99.90;;;;;;5070126;28;20025;-77
2022/03/28 11:18:09;;;;;;;43.08;36.58;;;11.50;99.90;;;;;;5045032;28;20033;-77
2022/03/28 11:20:53;;;;;;;42.92;35.65;;;11.50;99.90;;;;;;5046393;28;20029;-77
2022/03/28 11:23:20;;;;;;;50.97;39.45;;;11.40;99.90;;;;;;5036327;28;20029;-77
2022/03/28 11:26:02;;;;;;;53.83;44.88;;;11.40;99.90;;;;;;5051159;28;20456;-78
2022/03/28 11:28:28;;;;;;;47.83;37.33;;;11.30;99.90;;;;;;5070184;28;20116;-77
2022/03/28 11:31:17;;;;;;;44.22;37.38;;;11.30;99.90;;;;;;5040172;28;20036;-78
2022/03/28 11:33:47;;;;;;;45.78;37.50;;;11.30;99.90;;;;;;5062725;28;20028;-77
2022/03/28 11:36:18;;;;;;;43.63;37.75;;;11.30;99.90;;;;;;5073987;28;20039;-78
2022/03/28 11:38:51;;;;;;;50.38;37.40;;;11.70;99.90;;;;;;5065064;28;20028;-78
2022/03/28 11:41:19;;;;;;;44.45;38.50;;;11.80;99.90;;;;;;5055897;28;20123;-78
2022/03/28 11:43:53;;;;;;;44.65;38.42;;;11.90;99.90;;;;;;5074001;28;20517;-78
2022/03/28 11:46:24;;;;;;;47.13;37.78;;;11.80;99.90;;;;;;5055897;28;20551;-77
2022/03/28 11:48:53;;;;;;;47.53;40.05;;;11.50;99.90;;;;;;5053114;28;20059;-77
2022/03/28 11:51:23;;;;;;;45.42;38.90;;;11.40;99.90;;;;;;5073900;28;20127;-78
2022/03/28 11:53:48;;;;;;;49.35;39.83;;;11.20;99.90;;;;;;5050410;28;20064;-78
2022/03/28 11:56:29;;;;;;;45.20;38.83;;;11.20;99.90;;;;;;5042777;28;20064;-77
2022/03/28 11:59:07;;;;;;;48.10;38.47;;;11.20;99.90;;;;;;5066072;28;20044;-78
2022/03/28 12:01:34;;;;;;;45.20;37.40;;;11.20;99.90;;;;;;5055826;28;20028;-78
2022/03/28 12:04:00;;;;;;;48.45;38.65;;;11.50;99.90;;;;;;5073607;28;20048;-78
2022/03/28 12:06:36;;;;;;;50.42;39.28;;;11.70;99.90;;;;;;5073533;28;20029;-77
2022/03/28 12:09:04;;;;;;;44.35;39.55;;;11.70;99.90;;;;;;5073321;28;20037;-77
2022/03/28 12:11:37;;;;;;;45.95;37.63;;;11.50;99.90;;;;;;5072141;28;20029;-77
2022/03/28 12:14:07;;;;;;;40.75;34.92;;;11.40;99.90;;;;;;5064908;28;20021;-77
2022/03/28 12:16:51;;;;;;;39.75;32.63;;;11.70;99.90;;;;;;5071655;28;20479;-77
2022/03/28 12:19:22;;;;;;;38.22;30.35;;;13.70;99.90;;;;;;5070859;28;20387;-78
2022/03/28 12:21:52;;;;;;;35.88;29.85;;;15.10;99.90;;;;;;5052334;28;20450;-78
2022/03/28 12:24:20;;;;;;;37.08;30.00;;;15.80;99.90;;;;;;5071806;28;20024;-77
2022/03/28 12:26:49;;;;;;;35.53;29.65;;;15.80;99.90;;;;;;5072041;28;20425;-78
2022/03/28 12:29:15;;;;;;;36.80;28.25;;;16.20;99.90;;;;;;5070027;28;20016;-78
2022/03/28 12:31:46;;;;;;;34.90;28.33;;;17.00;99.90;;;;;;5071295;28;20024;-78
2022/03/28 12:34:19;;;;;;;31.92;28.25;;;17.30;99.90;;;;;;5069927;28;20025;-78
2022/03/28 12:36:54;;;;;;;35.58;29.75;;;17.90;99.90;;;;;;5053309;28;20028;-78
2022/03/28 12:39:23;;;;;;;34.83;28.95;;;18.20;99.90;;;;;;5053135;28;20434;-79
2022/03/28 12:42:25;;;;;;;31.92;28.08;;;18.70;99.90;;;;;;5053066;28;20107;-77
2022/03/28 12:44:55;;;;;;;35.15;28.45;;;19.10;99.90;;;;;;5026715;28;20048;-78
2022/03/28 12:47:31;;;;;;;35.58;28.80;;;18.50;99.90;;;;;;5067188;28;20017;-79
2022/03/28 12:50:08;;;;;;;29.95;26.88;;;19.00;99.90;;;;;;5069869;28;20036;-78
2022/03/28 12:52:34;;;;;;;33.83;28.00;;;18.90;99.90;;;;;;5070839;28;20044;-79
2022/03/28 12:55:12;;;;;;;28.42;25.40;;;19.10;99.90;;;;;;5069604;28;20425;-79
2022/03/28 12:57:39;;;;;;;31.58;27.40;;;19.30;99.90;;;;;;5052199;28;20072;-78
2022/03/28 13:00:10;;;;;;;31.42;25.60;;;19.00;99.90;;;;;;5050580;28;20025;-78
2022/03/28 13:02:49;;;;;;;31.85;25.52;;;19.50;99.90;;;;;;5053218;28;20023;-78
2022/03/28 13:05:16;;;;;;;31.60;25.23;;;20.20;99.90;;;;;;5051985;28;20024;-78
2022/03/28 13:07:42;;;;;;;29.98;24.23;;;20.20;99.90;;;;;;5072129;28;20020;-78
2022/03/28 13:10:08;;;;;;;30.27;24.42;;;20.50;99.90;;;;;;5052703;28;20129;-79
2022/03/28 13:12:38;;;;;;;27.42;24.40;;;20.30;99.90;;;;;;5052506;28;20057;-79
2022/03/28 13:15:19;;;;;;;32.40;24.20;;;20.30;99.90;;;;;;5052301;28;20386;-79
2022/03/28 13:18:01;;;;;;;29.77;26.08;;;20.10;99.90;;;;;;5069988;28;20645;-78
2022/03/28 13:20:27;;;;;;;31.20;26.25;;;19.80;99.90;;;;;;5048773;28;20048;-79
2022/03/28 13:22:54;;;;;;;33.92;25.60;;;20.20;99.90;;;;;;5070383;28;20059;-78
2022/03/28 13:25:21;;;;;;;31.70;24.27;;;20.80;99.90;;;;;;5071269;28;20024;-78
2022/03/28 13:28:09;;;;;;;30.63;23.52;;;21.50;99.90;;;;;;5072081;28;20144;-78
2022/03/28 13:30:43;;;;;;;28.20;24.90;;;21.80;99.90;;;;;;5049671;28;20040;-79
2022/03/28 13:33:11;;;;;;;30.20;25.45;;;21.20;99.90;;;;;;5051956;28;20386;-79
2022/03/28 13:35:37;;;;;;;29.10;24.25;;;21.60;99.90;;;;;;5051765;28;20035;-78
2022/03/28 13:38:05;;;;;;;31.80;25.77;;;22.70;99.90;;;;;;5070202;28;20021;-78
2022/03/28 13:40:32;;;;;;;31.05;25.90;;;22.90;99.90;;;;;;5051908;28;20502;-78
2022/03/28 13:42:59;;;;;;;29.25;26.13;;;21.60;99.90;;;;;;5051685;28;20040;-79
2022/03/28 13:45:26;;;;;;;29.13;25.30;;;21.50;99.90;;;;;;5070668;28;20032;-78
2022/03/28 13:47:52;;;;;;;31.35;25.08;;;21.40;99.90;;;;;;5053580;28;20074;-78
2022/03/28 13:50:18;;;;;;;32.75;25.23;;;21.30;99.90;;;;;;5053179;28;20144;-78
2022/03/28 13:52:44;;;;;;;33.80;25.70;;;21.10;99.90;;;;;;5071523;28;20017;-78
2022/03/28 13:55:12;;;;;;;29.65;24.83;;;22.10;99.90;;;;;;5070580;28;20618;-79
2022/03/28 13:57:38;;;;;;;34.10;26.20;;;21.30;99.90;;;;;;5062489;28;20183;-78
2022/03/28 14:00:05;;;;;;;29.38;26.10;;;21.00;99.90;;;;;;5071043;28;20436;-78
2022/03/28 14:02:31;;;;;;;34.00;27.33;;;20.40;99.90;;;;;;5070908;28;20012;-78
2022/03/28 14:05:01;;;;;;;30.17;26.17;;;20.30;99.90;;;;;;5047509;28;20032;-78
2022/03/28 14:07:31;;;;;;;29.55;25.08;;;20.00;99.90;;;;;;5071412;28;20013;-78
2022/03/28 14:09:57;;;;;;;32.63;24.02;;;19.90;99.90;;;;;;5044845;28;20056;-78
2022/03/28 14:12:29;;;;;;;31.42;22.65;;;19.80;99.90;;;;;;5069335;28;20020;-78
2022/03/28 14:15:08;;;;;;;24.17;20.73;;;20.30;99.90;;;;;;5070853;28;20032;-75
2022/03/28 14:17:37;;;;;;;27.02;22.38;;;20.80;99.90;;;;;;5071201;28;20074;-78
2022/03/28 14:20:04;;;;;;;24.55;22.05;;;20.40;99.90;;;;;;5070923;28;20043;-78
2022/03/28 14:22:31;;;;;;;30.55;23.80;;;20.40;99.90;;;;;;5071369;28;20374;-77
2022/03/28 14:24:58;;;;;;;32.22;25.15;;;19.40;99.90;;;;;;5070742;28;20031;-76
2022/03/28 14:27:24;;;;;;;30.33;26.05;;;19.00;99.90;;;;;;5053290;28;20530;-77
2022/03/28 14:29:50;;;;;;;29.30;24.27;;;18.80;99.90;;;;;;5070450;28;20024;-76
2022/03/28 14:32:22;;;;;;;29.88;25.30;;;19.00;99.90;;;;;;5071150;28;20479;-78
2022/03/28 14:34:52;;;;;;;34.55;26.02;;;19.00;99.90;;;;;;5052686;28;20024;-76
2022/03/28 14:37:27;;;;;;;31.52;24.50;;;19.10;99.90;;;;;;5053350;28;20052;-76
2022/03/28 14:39:53;;;;;;;36.60;25.45;;;19.30;99.90;;;;;;5070739;28;20038;-77
2022/03/28 14:42:23;;;;;;;27.58;24.27;;;19.50;99.90;;;;;;5071175;28;20107;-76
2022/03/28 14:44:50;;;;;;;30.25;25.20;;;19.40;99.90;;;;;;5070380;28;20423;-76
2022/03/28 14:47:16;;;;;;;28.55;23.30;;;19.20;99.90;;;;;;5052760;28;20025;-75
2022/03/28 14:49:42;;;;;;;27.48;22.00;;;18.90;99.90;;;;;;5070407;28;20055;-76
2022/03/28 14:52:09;;;;;;;26.13;21.40;;;20.10;99.90;;;;;;5071115;28;20379;-76
2022/03/28 14:54:38;;;;;;;28.00;23.10;;;20.70;99.90;;;;;;5070009;28;20248;-78
2022/03/28 14:57:08;;;;;;;35.33;24.45;;;20.40;99.90;;;;;;5066196;28;20108;-78
2022/03/28 14:59:34;;;;;;;29.35;23.20;;;20.60;99.90;;;;;;5052126;28;20479;-78